createdAt,value
2023-01-09T00:00:51.032Z,4.90
2023-01-09T00:03:17.604Z,5.00
2023-01-09T00:05:44.207Z,5.00
2023-01-09T00:08:10.772Z,4.90
2023-01-09T00:10:37.352Z,4.90
2023-01-09T00:13:03.955Z,4.90
2023-01-09T00:15:30.506Z,4.90
2023-01-09T00:17:57.178Z,4.90
2023-01-09T00:20:23.735Z,4.90
2023-01-09T00:22:50.336Z,4.90
2023-01-09T00:25:17.003Z,4.90
2023-01-09T00:27:43.559Z,4.90
2023-01-09T00:30:10.992Z,4.80
2023-01-09T00:32:37.562Z,4.80
2023-01-09T00:35:04.429Z,4.80
2023-01-09T00:37:31.025Z,4.80
2023-01-09T00:39:57.579Z,4.80
2023-01-09T00:42:26.661Z,4.80
2023-01-09T00:44:58.683Z,4.70
2023-01-09T00:47:32.588Z,4.80
2023-01-09T00:50:04.360Z,4.70
2023-01-09T00:52:35.608Z,4.70
2023-01-09T00:55:03.031Z,4.80
2023-01-09T00:57:30.554Z,4.80
2023-01-09T00:59:58.477Z,4.80
2023-01-09T01:02:25.673Z,4.80
2023-01-09T01:04:52.373Z,4.80
2023-01-09T01:07:18.970Z,4.80
2023-01-09T01:09:45.542Z,4.80
2023-01-09T01:12:12.144Z,4.80
2023-01-09T01:14:39.063Z,4.70
2023-01-09T01:17:06.451Z,4.70
2023-01-09T01:19:37.141Z,4.70
2023-01-09T01:22:03.928Z,4.70
2023-01-09T01:24:30.790Z,4.70
2023-01-09T01:26:57.331Z,4.70
2023-01-09T01:29:23.898Z,4.70
2023-01-09T01:31:51.983Z,4.70
2023-01-09T01:34:18.708Z,4.70
2023-01-09T01:36:45.255Z,4.80
2023-01-09T01:39:12.152Z,4.80
2023-01-09T01:41:38.699Z,4.80
2023-01-09T01:44:27.217Z,4.80
2023-01-09T01:46:55.708Z,4.80
2023-01-09T01:49:22.517Z,4.80
2023-01-09T01:51:52.915Z,4.80
2023-01-09T01:54:26.048Z,4.80
2023-01-09T01:56:57.430Z,4.90
2023-01-09T01:59:33.399Z,4.90
2023-01-09T02:02:02.148Z,4.90
2023-01-09T02:04:30.359Z,4.80
2023-01-09T02:06:58.695Z,4.90
2023-01-09T02:09:26.302Z,4.90
2023-01-09T02:11:56.808Z,4.80
2023-01-09T02:14:26.697Z,4.90
2023-01-09T02:17:08.432Z,4.90
2023-01-09T02:19:46.899Z,4.90
2023-01-09T02:22:13.427Z,4.90
2023-01-09T02:25:00.901Z,5.00
2023-01-09T02:27:30.443Z,5.00
2023-01-09T02:30:28.833Z,5.00
2023-01-09T02:32:59.628Z,5.00
2023-01-09T02:35:44.205Z,5.00
2023-01-09T02:38:32.069Z,5.00
2023-01-09T02:41:08.373Z,4.90
2023-01-09T02:43:34.998Z,4.90
2023-01-09T02:46:01.683Z,5.00
2023-01-09T02:48:29.481Z,5.10
2023-01-09T02:50:58.752Z,5.00
2023-01-09T02:54:09.896Z,5.00
2023-01-09T02:57:04.300Z,5.10
2023-01-09T02:59:39.855Z,5.00
2023-01-09T03:02:28.900Z,5.00
2023-01-09T03:05:24.589Z,5.10
2023-01-09T03:08:08.327Z,5.10
2023-01-09T03:10:45.778Z,5.10
2023-01-09T03:13:16.140Z,5.20
2023-01-09T03:15:45.612Z,5.20
2023-01-09T03:18:15.816Z,5.20
2023-01-09T03:20:43.648Z,5.20
2023-01-09T03:23:10.731Z,5.20
2023-01-09T03:25:37.332Z,5.20
2023-01-09T03:28:09.252Z,5.20
2023-01-09T03:30:36.855Z,5.20
2023-01-09T03:33:03.524Z,5.20
2023-01-09T03:35:30.122Z,5.20
2023-01-09T03:37:56.697Z,5.20
2023-01-09T03:40:23.279Z,5.20
2023-01-09T03:42:49.872Z,5.10
2023-01-09T03:45:16.576Z,5.20
2023-01-09T03:47:43.151Z,5.20
2023-01-09T03:50:10.276Z,5.20
2023-01-09T03:52:36.852Z,5.20
2023-01-09T03:55:03.656Z,5.20
2023-01-09T03:57:30.293Z,5.20
2023-01-09T03:59:56.866Z,5.20
2023-01-09T04:02:23.498Z,5.30
2023-01-09T04:04:50.034Z,5.40
2023-01-09T04:07:16.601Z,5.50
2023-01-09T04:09:43.182Z,5.50
2023-01-09T04:12:09.759Z,5.60
2023-01-09T04:14:36.341Z,5.70
2023-01-09T04:17:02.913Z,5.80
2023-01-09T04:19:29.457Z,5.80
2023-01-09T04:21:55.992Z,5.90
2023-01-09T04:24:22.565Z,5.90
2023-01-09T04:26:49.153Z,6.00
2023-01-09T04:29:15.893Z,6.00
2023-01-09T04:31:42.560Z,6.10
2023-01-09T04:34:09.144Z,6.20
2023-01-09T04:36:35.730Z,6.20
2023-01-09T04:39:02.810Z,6.20
2023-01-09T04:41:29.350Z,6.40
2023-01-09T04:43:55.896Z,6.40
2023-01-09T04:46:22.455Z,6.50
2023-01-09T04:48:48.988Z,6.50
2023-01-09T04:51:15.543Z,6.60
2023-01-09T04:53:42.079Z,6.60
2023-01-09T04:56:08.623Z,6.70
2023-01-09T04:58:35.162Z,6.80
2023-01-09T05:01:01.809Z,6.80
2023-01-09T05:03:28.435Z,6.80
2023-01-09T05:05:54.996Z,6.90
2023-01-09T05:08:21.566Z,6.90
2023-01-09T05:10:48.106Z,6.80
2023-01-09T05:13:14.663Z,6.80
2023-01-09T05:15:41.215Z,6.70
2023-01-09T05:18:07.761Z,6.70
2023-01-09T05:20:34.351Z,6.70
2023-01-09T05:23:00.881Z,6.60
2023-01-09T05:25:27.456Z,6.60
2023-01-09T05:27:54.015Z,6.60
2023-01-09T05:30:20.653Z,6.60
2023-01-09T05:32:47.252Z,6.60
2023-01-09T05:35:14.230Z,6.60
2023-01-09T05:37:40.783Z,6.60
2023-01-09T05:40:07.947Z,6.50
2023-01-09T05:42:34.509Z,6.50
2023-01-09T05:45:01.097Z,6.60
2023-01-09T05:47:27.958Z,6.50
2023-01-09T05:49:54.519Z,6.50
2023-01-09T05:52:21.068Z,6.50
2023-01-09T05:54:47.662Z,6.50
2023-01-09T05:57:14.484Z,6.40
2023-01-09T05:59:41.119Z,6.40
2023-01-09T06:02:07.740Z,6.50
2023-01-09T06:04:34.330Z,6.40
2023-01-09T06:07:00.895Z,6.40
2023-01-09T06:09:27.474Z,6.40
2023-01-09T06:11:54.897Z,6.40
2023-01-09T06:14:21.454Z,6.40
2023-01-09T06:16:48.115Z,6.40
2023-01-09T06:19:14.785Z,6.50
2023-01-09T06:21:41.322Z,6.50
2023-01-09T06:24:08.071Z,6.40
2023-01-09T06:26:34.627Z,6.40
2023-01-09T06:29:01.181Z,6.40
2023-01-09T06:31:28.036Z,6.40
2023-01-09T06:33:54.632Z,6.40
2023-01-09T06:36:22.583Z,6.30
2023-01-09T06:38:49.337Z,6.20
2023-01-09T06:41:15.907Z,6.20
2023-01-09T06:43:42.548Z,6.20
2023-01-09T06:46:09.632Z,6.20
2023-01-09T06:48:36.274Z,6.10
2023-01-09T06:51:02.992Z,6.10
2023-01-09T06:53:29.587Z,6.00
2023-01-09T06:55:56.151Z,6.00
2023-01-09T06:58:22.781Z,5.90
2023-01-09T07:00:49.425Z,5.80
2023-01-09T07:03:16.131Z,5.80
2023-01-09T07:05:43.019Z,5.80
2023-01-09T07:08:09.821Z,5.70
2023-01-09T07:10:36.378Z,5.70
2023-01-09T07:13:03.143Z,5.70
2023-01-09T07:15:29.740Z,5.70
2023-01-09T07:17:56.311Z,5.60
2023-01-09T07:20:22.932Z,5.70
2023-01-09T07:22:49.503Z,5.70
2023-01-09T07:25:16.113Z,5.60
2023-01-09T07:27:42.702Z,5.60
2023-01-09T07:30:09.909Z,5.60
2023-01-09T07:32:36.581Z,5.60
2023-01-09T07:35:03.227Z,5.60
2023-01-09T07:37:29.850Z,5.60
2023-01-09T07:39:56.470Z,5.60
2023-01-09T07:42:23.070Z,5.60
2023-01-09T07:44:50.822Z,5.60
2023-01-09T07:47:17.395Z,5.60
2023-01-09T07:49:44.037Z,5.50
2023-01-09T07:52:10.746Z,5.60
2023-01-09T07:54:37.342Z,5.50
2023-01-09T07:57:04.078Z,5.50
2023-01-09T07:59:31.802Z,5.40
2023-01-09T08:01:58.591Z,5.40
2023-01-09T08:04:25.168Z,5.40
2023-01-09T08:06:51.910Z,5.30
2023-01-09T08:09:18.558Z,5.30
2023-01-09T08:11:45.126Z,5.30
2023-01-09T08:14:11.751Z,5.20
2023-01-09T08:16:38.284Z,5.20
2023-01-09T08:19:04.856Z,5.20
2023-01-09T08:21:31.414Z,5.20
2023-01-09T08:23:58.005Z,5.30
2023-01-09T08:26:24.573Z,5.30
2023-01-09T08:28:51.224Z,5.30
2023-01-09T08:31:17.778Z,5.30
2023-01-09T08:33:44.393Z,5.30
2023-01-09T08:36:11.100Z,5.30
2023-01-09T08:38:37.967Z,5.30
2023-01-09T08:41:04.566Z,5.40
2023-01-09T08:43:31.119Z,5.40
2023-01-09T08:45:58.564Z,5.30
2023-01-09T08:48:25.174Z,5.30
2023-01-09T08:50:51.777Z,5.40
2023-01-09T08:53:18.353Z,5.30
2023-01-09T08:55:44.891Z,5.30
2023-01-09T08:58:11.488Z,5.30
2023-01-09T09:00:38.544Z,5.30
2023-01-09T09:03:05.210Z,5.40
2023-01-09T09:05:32.531Z,5.40
2023-01-09T09:07:59.377Z,5.40
2023-01-09T09:10:28.242Z,5.40
2023-01-09T09:12:57.387Z,5.40
2023-01-09T09:15:24.951Z,5.40
2023-01-09T09:17:52.296Z,5.40
2023-01-09T09:20:18.868Z,5.40
2023-01-09T09:22:48.795Z,5.50
2023-01-09T09:25:16.202Z,5.50
2023-01-09T09:27:42.911Z,5.50
2023-01-09T09:30:10.551Z,5.50
2023-01-09T09:32:37.719Z,5.40
2023-01-09T09:35:04.984Z,5.40
2023-01-09T09:37:31.572Z,5.40
2023-01-09T09:40:01.474Z,5.40
2023-01-09T09:42:30.265Z,5.40
2023-01-09T09:45:09.855Z,5.40
2023-01-09T09:48:04.126Z,5.40
2023-01-09T09:50:49.663Z,5.40
2023-01-09T09:53:21.812Z,5.40
2023-01-09T09:55:50.276Z,5.40
2023-01-09T09:58:21.959Z,5.50
2023-01-09T10:00:50.738Z,5.50
2023-01-09T10:03:34.770Z,5.50
2023-01-09T10:06:11.284Z,5.50
2023-01-09T10:09:03.671Z,5.60
2023-01-09T10:11:55.679Z,5.60
2023-01-09T10:14:24.670Z,5.60
2023-01-09T10:17:00.293Z,5.60
2023-01-09T10:19:57.437Z,5.60
2023-01-09T10:22:47.784Z,5.70
2023-01-09T10:25:37.933Z,5.60
2023-01-09T10:28:42.613Z,5.70
2023-01-09T10:31:25.176Z,5.70
2023-01-09T10:33:54.751Z,5.70
2023-01-09T10:36:52.973Z,5.70
2023-01-09T10:39:35.780Z,5.80
2023-01-09T10:42:12.180Z,5.80
2023-01-09T10:44:53.840Z,5.80
2023-01-09T10:47:32.038Z,5.90
2023-01-09T10:49:59.907Z,5.80
2023-01-09T10:52:35.408Z,5.90
2023-01-09T10:55:19.601Z,5.80
2023-01-09T10:57:50.400Z,5.90
2023-01-09T11:00:23.487Z,5.90
2023-01-09T11:02:52.061Z,6.00
2023-01-09T11:05:22.783Z,6.00
2023-01-09T11:08:03.301Z,6.00
2023-01-09T11:10:49.621Z,6.10
2023-01-09T11:13:27.980Z,6.10
2023-01-09T11:16:04.861Z,6.20
2023-01-09T11:18:38.323Z,6.20
2023-01-09T11:21:15.160Z,6.20
2023-01-09T11:23:41.760Z,6.20
2023-01-09T11:26:22.547Z,6.20
2023-01-09T11:29:13.631Z,6.20
2023-01-09T11:31:42.191Z,6.30
2023-01-09T11:34:21.033Z,6.40
2023-01-09T11:36:48.617Z,6.40
2023-01-09T11:39:23.828Z,6.40
2023-01-09T11:41:55.765Z,6.50
2023-01-09T11:44:22.857Z,6.50
2023-01-09T11:46:49.555Z,6.50
2023-01-09T11:49:24.059Z,6.40
2023-01-09T11:52:09.217Z,6.50
2023-01-09T11:54:38.002Z,6.50
2023-01-09T11:57:04.609Z,6.50
2023-01-09T11:59:31.422Z,6.60
2023-01-09T12:02:24.801Z,6.60
2023-01-09T12:04:55.159Z,6.60
2023-01-09T12:07:42.720Z,6.60
2023-01-09T12:10:45.567Z,6.60
2023-01-09T12:13:33.580Z,6.70
2023-01-09T12:16:35.397Z,6.70
2023-01-09T12:19:05.644Z,6.70
2023-01-09T12:21:39.312Z,6.70
2023-01-09T12:24:33.067Z,6.70
2023-01-09T12:27:30.741Z,6.70
2023-01-09T12:30:34.640Z,6.80
2023-01-09T12:33:22.957Z,6.70
2023-01-09T12:36:11.776Z,6.80
2023-01-09T12:38:41.068Z,6.80
2023-01-09T12:41:35.843Z,6.80
2023-01-09T12:44:39.857Z,6.80
2023-01-09T12:47:21.653Z,6.80
2023-01-09T12:50:17.556Z,6.80
2023-01-09T12:52:48.660Z,6.80
2023-01-09T12:55:22.369Z,6.80
2023-01-09T12:57:51.609Z,6.90
2023-01-09T13:00:24.048Z,6.90
2023-01-09T13:03:11.199Z,6.90
2023-01-09T13:05:51.291Z,6.90
2023-01-09T13:08:21.269Z,6.90
2023-01-09T13:10:51.923Z,6.90
2023-01-09T13:13:34.195Z,7.00
2023-01-09T13:16:12.039Z,7.00
2023-01-09T13:18:49.695Z,6.90
2023-01-09T13:21:16.675Z,6.80
2023-01-09T13:23:55.325Z,6.90
2023-01-09T13:26:30.244Z,6.90
2023-01-09T13:29:00.857Z,6.90
2023-01-09T13:31:56.072Z,6.90
2023-01-09T13:34:24.865Z,6.90
2023-01-09T13:36:54.112Z,6.90
2023-01-09T13:39:26.769Z,7.00
2023-01-09T13:42:18.173Z,7.00
2023-01-09T13:44:47.355Z,7.00
2023-01-09T13:47:18.511Z,7.00
2023-01-09T13:49:47.915Z,6.90
2023-01-09T13:52:34.430Z,7.00
2023-01-09T13:55:02.832Z,7.00
2023-01-09T13:57:37.300Z,7.00
2023-01-09T14:00:12.907Z,7.00
2023-01-09T14:02:39.398Z,7.00
2023-01-09T14:05:16.822Z,7.00
2023-01-09T14:07:44.419Z,7.00
2023-01-09T14:10:29.806Z,7.10
2023-01-09T14:12:57.748Z,7.10
2023-01-09T14:15:38.886Z,7.10
2023-01-09T14:18:14.512Z,7.20
2023-01-09T14:20:52.235Z,7.20
2023-01-09T14:23:46.146Z,7.30
2023-01-09T14:26:25.240Z,7.20
2023-01-09T14:28:52.010Z,7.20
2023-01-09T14:31:32.572Z,7.20
2023-01-09T14:34:31.558Z,7.20
2023-01-09T14:37:02.123Z,7.10
2023-01-09T14:39:32.282Z,7.10
2023-01-09T14:42:03.564Z,7.00
2023-01-09T14:44:45.053Z,7.00
2023-01-09T14:47:41.609Z,6.90
2023-01-09T14:50:37.739Z,6.70
2023-01-09T14:53:12.679Z,6.60
2023-01-09T14:55:42.301Z,6.50
2023-01-09T14:58:19.516Z,6.50
2023-01-09T15:00:49.124Z,6.50
2023-01-09T15:03:16.231Z,6.50
2023-01-09T15:05:44.454Z,6.50
2023-01-09T15:08:20.356Z,6.50
2023-01-09T15:10:49.134Z,6.50
2023-01-09T15:13:19.784Z,6.50
2023-01-09T15:15:48.333Z,6.50
2023-01-09T15:18:24.647Z,6.40
2023-01-09T15:20:54.420Z,6.40
2023-01-09T15:23:23.413Z,6.40
2023-01-09T15:25:50.045Z,6.50
2023-01-09T15:28:31.531Z,6.40
2023-01-09T15:31:13.207Z,6.40
2023-01-09T15:33:41.945Z,6.40
2023-01-09T15:36:15.281Z,6.40
2023-01-09T15:38:43.136Z,6.40
2023-01-09T15:41:12.799Z,6.40
2023-01-09T15:43:42.732Z,6.50
2023-01-09T15:46:11.859Z,6.40
2023-01-09T15:48:38.472Z,6.40
2023-01-09T15:51:13.503Z,6.40
2023-01-09T15:53:46.071Z,6.30
2023-01-09T15:56:12.588Z,6.40
2023-01-09T15:58:47.944Z,6.30
2023-01-09T16:01:17.502Z,6.30
2023-01-09T16:03:44.354Z,6.30
2023-01-09T16:06:19.202Z,6.30
2023-01-09T16:08:51.236Z,6.30
2023-01-09T16:11:25.494Z,6.30
2023-01-09T16:13:53.219Z,6.30
2023-01-09T16:16:33.588Z,6.20
2023-01-09T16:19:00.197Z,6.30
2023-01-09T16:21:34.015Z,6.20
2023-01-09T16:24:03.993Z,6.20
2023-01-09T16:26:31.807Z,6.20
2023-01-09T16:29:37.783Z,6.10
2023-01-09T16:32:06.503Z,6.10
2023-01-09T16:34:36.553Z,6.10
2023-01-09T16:37:05.362Z,6.10
2023-01-09T16:39:32.017Z,6.10
2023-01-09T16:41:58.582Z,6.10
2023-01-09T16:44:25.141Z,6.10
2023-01-09T16:46:51.691Z,6.00
2023-01-09T16:49:23.903Z,6.00
2023-01-09T16:51:51.383Z,6.00
2023-01-09T16:54:18.603Z,6.00
2023-01-09T16:56:51.427Z,6.00
2023-01-09T16:59:19.742Z,6.00
2023-01-09T17:01:48.274Z,6.00
2023-01-09T17:04:16.336Z,5.90
2023-01-09T17:06:44.186Z,5.90
2023-01-09T17:09:16.455Z,5.80
2023-01-09T17:11:43.701Z,5.90
2023-01-09T17:14:13.147Z,5.80
2023-01-09T17:16:40.115Z,5.90
2023-01-09T17:19:06.735Z,5.80
2023-01-09T17:21:33.311Z,5.70
2023-01-09T17:24:00.409Z,5.70
2023-01-09T17:26:27.013Z,5.70
2023-01-09T17:28:53.578Z,5.70
2023-01-09T17:31:20.249Z,5.60
2023-01-09T17:33:46.846Z,5.60
2023-01-09T17:36:33.243Z,5.50
2023-01-09T17:39:00.354Z,5.50
2023-01-09T17:41:31.243Z,5.40
2023-01-09T17:43:59.466Z,5.50
2023-01-09T17:46:37.874Z,5.50
2023-01-09T17:49:05.723Z,5.40
2023-01-09T17:51:32.329Z,5.40
2023-01-09T17:53:59.002Z,5.40
2023-01-09T17:56:29.000Z,5.40
2023-01-09T17:58:55.798Z,5.40
2023-01-09T18:01:22.419Z,5.40
2023-01-09T18:03:49.172Z,5.30
2023-01-09T18:06:18.265Z,5.30
2023-01-09T18:08:45.237Z,5.20
2023-01-09T18:11:16.829Z,5.20
2023-01-09T18:13:47.972Z,5.20
2023-01-09T18:16:18.209Z,5.20
2023-01-09T18:18:45.839Z,5.10
2023-01-09T18:21:17.190Z,5.10
2023-01-09T18:23:43.752Z,5.10
2023-01-09T18:26:11.743Z,5.10
2023-01-09T18:28:39.254Z,5.10
2023-01-09T18:31:06.177Z,5.10
2023-01-09T18:33:32.984Z,5.20
2023-01-09T18:36:06.688Z,5.10
2023-01-09T18:38:33.258Z,5.10
2023-01-09T18:41:01.475Z,5.10
2023-01-09T18:43:28.747Z,5.10
2023-01-09T18:45:55.687Z,5.10
2023-01-09T18:48:22.765Z,5.10
2023-01-09T18:50:49.568Z,5.10
2023-01-09T18:53:16.137Z,5.10
2023-01-09T18:55:42.709Z,5.10
2023-01-09T18:58:09.263Z,5.10
2023-01-09T19:00:35.849Z,5.10
2023-01-09T19:03:02.472Z,5.10
2023-01-09T19:05:29.023Z,5.10
2023-01-09T19:07:55.541Z,5.10
2023-01-09T19:10:22.110Z,5.00
2023-01-09T19:12:48.679Z,5.10
2023-01-09T19:15:15.236Z,5.10
2023-01-09T19:17:41.847Z,5.10
2023-01-09T19:20:09.151Z,5.10
2023-01-09T19:22:35.669Z,5.00
2023-01-09T19:25:02.250Z,5.10
2023-01-09T19:27:29.781Z,5.00
2023-01-09T19:29:56.355Z,5.00
2023-01-09T19:32:22.946Z,5.00
2023-01-09T19:34:49.669Z,4.90
2023-01-09T19:37:16.286Z,4.90
2023-01-09T19:39:42.885Z,4.80
2023-01-09T19:42:09.585Z,4.70
2023-01-09T19:44:36.206Z,4.70
2023-01-09T19:47:02.775Z,4.70
2023-01-09T19:49:29.324Z,4.70
2023-01-09T19:51:55.895Z,4.70
2023-01-09T19:54:22.481Z,4.70
2023-01-09T19:56:49.013Z,4.70
2023-01-09T19:59:15.576Z,4.60
2023-01-09T20:01:42.265Z,4.70
2023-01-09T20:04:11.680Z,4.60
2023-01-09T20:06:40.576Z,4.60
2023-01-09T20:09:07.942Z,4.60
2023-01-09T20:11:34.736Z,4.60
2023-01-09T20:14:01.302Z,4.50
2023-01-09T20:16:29.613Z,4.50
2023-01-09T20:18:58.054Z,4.50
2023-01-09T20:21:26.660Z,4.50
2023-01-09T20:23:55.202Z,4.60
2023-01-09T20:26:22.296Z,4.50
2023-01-09T20:28:49.413Z,4.50
2023-01-09T20:31:18.247Z,4.50
2023-01-09T20:33:46.149Z,4.40
2023-01-09T20:36:12.882Z,4.50
2023-01-09T20:38:40.840Z,4.50
2023-01-09T20:41:13.075Z,4.40
2023-01-09T20:43:39.607Z,4.50
2023-01-09T20:46:07.332Z,4.50
2023-01-09T20:48:33.966Z,4.40
2023-01-09T20:51:05.046Z,4.40
2023-01-09T20:53:31.580Z,4.40
2023-01-09T20:56:06.594Z,4.40
2023-01-09T20:58:34.129Z,4.40
2023-01-09T21:01:12.056Z,4.40
2023-01-09T21:03:39.648Z,4.40
2023-01-09T21:06:11.744Z,4.40
2023-01-09T21:08:38.690Z,4.40
2023-01-09T21:11:05.868Z,4.30
2023-01-09T21:13:32.521Z,4.30
2023-01-09T21:16:16.791Z,4.30
2023-01-09T21:18:44.060Z,4.40
2023-01-09T21:21:13.805Z,4.40
2023-01-09T21:23:48.231Z,4.40
2023-01-09T21:26:15.351Z,4.40
2023-01-09T21:28:42.353Z,4.30
2023-01-09T21:31:09.442Z,4.30
2023-01-09T21:33:36.019Z,4.30
2023-01-09T21:36:02.684Z,4.30
2023-01-09T21:38:29.274Z,4.30
2023-01-09T21:40:55.816Z,4.30
2023-01-09T21:43:28.618Z,4.30
2023-01-09T21:45:55.291Z,4.30
2023-01-09T21:48:22.069Z,4.30
2023-01-09T21:50:48.604Z,4.30
2023-01-09T21:53:15.204Z,4.30
2023-01-09T21:55:41.846Z,4.40
2023-01-09T21:58:08.377Z,4.40
2023-01-09T22:00:34.964Z,4.30
2023-01-09T22:03:01.518Z,4.30
2023-01-09T22:05:28.071Z,4.30
2023-01-09T22:07:55.258Z,4.30
2023-01-09T22:10:22.137Z,4.30
2023-01-09T22:12:51.877Z,4.30
2023-01-09T22:15:18.462Z,4.40
2023-01-09T22:17:45.031Z,4.40
2023-01-09T22:20:11.960Z,4.30
2023-01-09T22:22:38.536Z,4.30
2023-01-09T22:25:05.451Z,4.30
2023-01-09T22:27:32.032Z,4.30
2023-01-09T22:29:58.582Z,4.30
2023-01-09T22:32:25.146Z,4.30
2023-01-09T22:34:51.734Z,4.40
2023-01-09T22:37:18.340Z,4.40
2023-01-09T22:39:44.928Z,4.40
2023-01-09T22:42:11.499Z,4.50
2023-01-09T22:44:39.884Z,4.40
2023-01-09T22:47:06.603Z,4.50
2023-01-09T22:49:41.120Z,4.50
2023-01-09T22:52:12.517Z,4.50
2023-01-09T22:54:39.073Z,4.50
2023-01-09T22:57:05.634Z,4.50
2023-01-09T22:59:32.442Z,4.60
2023-01-09T23:01:59.091Z,4.50
2023-01-09T23:04:25.690Z,4.50
2023-01-09T23:06:52.250Z,4.50
2023-01-09T23:09:18.803Z,4.50
2023-01-09T23:11:45.414Z,4.40
2023-01-09T23:14:12.431Z,4.50
2023-01-09T23:16:39.367Z,4.40
2023-01-09T23:19:06.016Z,4.40
2023-01-09T23:21:32.648Z,4.50
2023-01-09T23:23:59.228Z,4.50
2023-01-09T23:26:25.858Z,4.50
2023-01-09T23:28:52.421Z,4.40
2023-01-09T23:31:19.023Z,4.50
2023-01-09T23:33:45.640Z,4.50
2023-01-09T23:36:12.189Z,4.50
2023-01-09T23:38:38.763Z,4.50
2023-01-09T23:41:05.405Z,4.50
2023-01-09T23:43:31.918Z,4.40
2023-01-09T23:45:58.525Z,4.40
2023-01-09T23:48:25.133Z,4.40
2023-01-09T23:50:53.683Z,4.40
2023-01-09T23:53:22.355Z,4.40
2023-01-09T23:55:50.045Z,4.40
2023-01-09T23:58:16.607Z,4.50
